Time;durP1;ratioP1;P1;durP2;ratioP2;P2;SDS_P1;SDS_P2;PMS_P1;PMS_P2;Temp;Humidity;BMP_temperature;BMP_pressure;BME280_temperature;BME280_humidity;BME280_pressure;Samples;Min_cycle;Max_cycle;Signal;HPM_P1;HPM_P2
2024/04/21 00:00:09;;;;;;;1.30;1.20;;;;;;;7.34;100.00;99777.32;87439;278;136892;-72
2024/04/21 00:02:10;;;;;;;1.60;1.50;;;;;;;7.34;100.00;99769.23;87539;271;22540;-73
2024/04/21 00:04:10;;;;;;;1.30;1.30;;;;;;;7.34;100.00;99763.44;87485;274;137083;-74
2024/04/21 00:06:11;;;;;;;1.80;1.30;;;;;;;7.32;100.00;99755.58;87539;278;24203;-73
2024/04/21 00:08:11;;;;;;;1.30;1.20;;;;;;;7.28;100.00;99749.33;87588;270;138099;-73
2024/04/21 00:10:12;;;;;;;1.30;1.20;;;;;;;7.25;100.00;99749.11;87739;271;24013;-73
2024/04/21 00:12:13;;;;;;;1.90;1.60;;;;;;;7.22;100.00;99746.55;87578;269;136876;-72
2024/04/21 00:14:13;;;;;;;5.20;1.00;;;;;;;7.21;100.00;99743.35;87872;276;22628;-73
2024/04/21 00:16:14;;;;;;;1.60;1.10;;;;;;;7.19;100.00;99737.89;87585;270;137781;-74
2024/04/21 00:18:15;;;;;;;1.30;1.20;;;;;;;7.17;100.00;99726.94;87635;270;25208;-71
2024/04/21 00:20:15;;;;;;;1.30;1.00;;;;;;;7.14;100.00;99711.98;87457;274;136648;-71
2024/04/21 00:22:16;;;;;;;1.80;1.70;;;;;;;7.11;100.00;99706.17;87500;272;25194;-73
2024/04/21 00:24:17;;;;;;;1.60;1.50;;;;;;;7.08;100.00;99703.03;87330;272;137074;-72
2024/04/21 00:26:18;;;;;;;1.80;1.70;;;;;;;7.05;100.00;99708.98;87437;276;25263;-72
2024/04/21 00:28:19;;;;;;;6.70;1.70;;;;;;;7.03;100.00;99719.88;87464;271;136601;-72
2024/04/21 00:30:20;;;;;;;2.10;1.90;;;;;;;7.02;100.00;99728.45;87561;271;25167;-71
2024/04/21 00:32:20;;;;;;;1.70;1.20;;;;;;;7.00;100.00;99727.38;87315;271;136949;-71
2024/04/21 00:34:21;;;;;;;1.90;1.50;;;;;;;7.00;100.00;99730.59;87432;270;22718;-71
2024/04/21 00:36:22;;;;;;;3.20;2.20;;;;;;;6.99;100.00;99724.55;87583;278;136284;-73
2024/04/21 00:38:23;;;;;;;1.60;1.50;;;;;;;6.98;100.00;99723.56;87664;270;23743;-73
2024/04/21 00:40:23;;;;;;;2.40;2.20;;;;;;;6.99;100.00;99725.45;87641;271;136148;-72
2024/04/21 00:42:24;;;;;;;2.80;2.30;;;;;;;6.99;100.00;99720.39;87386;267;933347;-73
2024/04/21 00:44:25;;;;;;;3.70;2.20;;;;;;;6.98;100.00;99722.13;88984;266;136412;-70
2024/04/21 00:46:27;;;;;;;2.10;2.00;;;;;;;6.99;100.00;99716.76;89019;271;23565;-71
2024/04/21 00:48:28;;;;;;;2.70;2.40;;;;;;;7.01;100.00;99711.62;88834;266;137484;-75
2024/04/21 00:50:31;;;;;;;3.10;2.90;;;;;;;7.02;100.00;99696.42;88678;268;22572;-72
2024/04/21 00:52:31;;;;;;;1.80;1.70;;;;;;;7.03;100.00;99678.34;88394;271;136061;-74
2024/04/21 00:54:32;;;;;;;2.40;2.20;;;;;;;7.02;100.00;99665.48;88241;272;22554;-75
2024/04/21 00:56:34;;;;;;;4.90;2.50;;;;;;;7.01;100.00;99646.71;87452;272;136438;-76
2024/04/21 00:58:35;;;;;;;1.20;1.20;;;;;;;7.00;100.00;99631.70;87495;280;22543;-76
2024/04/21 01:00:36;;;;;;;2.30;2.20;;;;;;;6.99;100.00;99630.79;87444;271;136753;-77
2024/04/21 01:02:37;;;;;;;3.50;2.10;;;;;;;6.96;100.00;99629.20;87411;280;22584;-76
2024/04/21 01:04:38;;;;;;;5.30;2.40;;;;;;;6.94;100.00;99641.23;87474;270;136639;-75
2024/04/21 01:06:40;;;;;;;2.30;2.10;;;;;;;6.92;100.00;99643.57;87496;279;24010;-74
2024/04/21 01:08:41;;;;;;;3.40;2.30;;;;;;;6.91;100.00;99644.61;87495;278;136600;-78
2024/04/21 01:10:42;;;;;;;2.60;2.00;;;;;;;6.90;100.00;99635.26;87549;270;22559;-75
2024/04/21 01:12:43;;;;;;;2.20;2.00;;;;;;;6.88;100.00;99637.03;87311;276;136658;-76
2024/04/21 01:14:44;;;;;;;2.20;2.10;;;;;;;6.86;100.00;99632.75;87531;271;25188;-76
2024/04/21 01:16:45;;;;;;;2.40;2.20;;;;;;;6.83;100.00;99625.88;87347;268;136450;-74
2024/04/21 01:18:45;;;;;;;2.80;2.60;;;;;;;6.81;100.00;99609.88;87545;274;22591;-74
2024/04/21 01:20:46;;;;;;;2.70;1.70;;;;;;;6.80;100.00;99606.34;87339;271;137478;-75
2024/04/21 01:22:48;;;;;;;2.70;2.50;;;;;;;6.77;100.00;99590.94;87472;272;22581;-75
2024/04/21 01:24:49;;;;;;;4.80;3.20;;;;;;;6.75;100.00;99579.19;87405;270;137752;-77
2024/04/21 01:26:49;;;;;;;4.10;2.60;;;;;;;6.74;100.00;99574.27;87403;267;22572;-76
2024/04/21 01:28:50;;;;;;;3.20;2.70;;;;;;;6.71;100.00;99571.70;87316;270;136575;-75
2024/04/21 01:30:51;;;;;;;5.00;3.50;;;;;;;6.71;100.00;99565.59;87548;278;22568;-74
2024/04/21 01:32:51;;;;;;;4.10;3.70;;;;;;;6.71;100.00;99561.80;87408;271;136818;-73
2024/04/21 01:34:52;;;;;;;2.30;2.20;;;;;;;6.71;100.00;99546.48;87520;279;25265;-74
2024/04/21 01:36:52;;;;;;;2.80;2.60;;;;;;;6.71;100.00;99542.97;87419;270;137342;-73
2024/04/21 01:38:53;;;;;;;4.10;2.40;;;;;;;6.70;100.00;99535.11;87522;277;23367;-72
2024/04/21 01:40:55;;;;;;;3.10;2.90;;;;;;;6.70;100.00;99525.20;87352;266;137846;-74
2024/04/21 01:42:55;;;;;;;2.80;2.70;;;;;;;6.70;100.00;99511.86;87386;271;22562;-73
2024/04/21 01:44:56;;;;;;;2.40;2.30;;;;;;;6.70;100.00;99510.23;87374;272;138852;-75
2024/04/21 01:46:57;;;;;;;2.10;2.00;;;;;;;6.69;100.00;99506.33;87500;279;25101;-72
2024/04/21 01:48:57;;;;;;;2.90;2.70;;;;;;;6.68;100.00;99504.84;87451;270;136564;-72
2024/04/21 01:50:58;;;;;;;2.90;2.80;;;;;;;6.67;100.00;99497.00;87591;266;25239;-74
2024/04/21 01:52:59;;;;;;;3.70;3.40;;;;;;;6.65;100.00;99489.15;87474;266;136274;-72
2024/04/21 01:55:00;;;;;;;2.50;2.30;;;;;;;6.64;100.00;99482.38;87573;266;22649;-75
2024/04/21 01:57:00;;;;;;;2.50;2.30;;;;;;;6.64;100.00;99479.36;87457;263;136345;-73
2024/04/21 01:59:01;;;;;;;2.70;2.40;;;;;;;6.63;100.00;99480.83;87521;276;23933;-73
2024/04/21 02:01:03;;;;;;;2.60;2.40;;;;;;;6.63;100.00;99473.90;87402;270;136456;-73
2024/04/21 02:03:04;;;;;;;1.60;1.50;;;;;;;6.63;100.00;99473.65;87473;272;22556;-72
2024/04/21 02:05:05;;;;;;;4.70;2.10;;;;;;;6.63;100.00;99480.30;87408;271;136399;-71
2024/04/21 02:07:09;;;;;;;1.70;1.60;;;;;;;6.64;100.00;99481.81;87611;271;22587;-73
2024/04/21 02:09:10;;;;;;;2.40;2.30;;;;;;;6.64;100.00;99473.14;87369;276;136577;-74
2024/04/21 02:11:11;;;;;;;2.00;1.90;;;;;;;6.66;100.00;99458.29;87493;276;22637;-75
2024/04/21 02:13:11;;;;;;;2.70;2.40;;;;;;;6.66;100.00;99452.30;87368;264;136329;-74
2024/04/21 02:15:12;;;;;;;2.60;2.40;;;;;;;6.67;100.00;99432.52;87437;272;25195;-72
2024/04/21 02:17:13;;;;;;;2.80;2.40;;;;;;;6.69;100.00;99427.52;87478;270;136255;-75
2024/04/21 02:19:13;;;;;;;2.70;2.50;;;;;;;6.70;100.00;99412.27;87436;271;25112;-73
2024/04/21 02:21:14;;;;;;;3.20;2.80;;;;;;;6.71;100.00;99405.43;87435;268;136498;-77
2024/04/21 02:23:15;;;;;;;1.60;1.50;;;;;;;6.71;100.00;99385.63;87619;267;22573;-72
2024/04/21 02:25:16;;;;;;;2.50;2.40;;;;;;;6.73;100.00;99379.77;87422;271;136570;-72
2024/04/21 02:27:17;;;;;;;2.50;2.30;;;;;;;6.74;100.00;99382.64;87467;268;22586;-78
2024/04/21 02:29:18;;;;;;;2.30;2.10;;;;;;;6.73;100.00;99382.75;87496;271;138426;-74
2024/04/21 02:31:18;;;;;;;2.20;2.10;;;;;;;6.73;100.00;99390.95;87440;271;25110;-71
2024/04/21 02:33:21;;;;;;;2.50;2.20;;;;;;;6.73;100.00;99400.20;87524;270;136402;-77
2024/04/21 02:35:22;;;;;;;2.70;2.50;;;;;;;6.75;100.00;99403.11;87580;271;22580;-74
2024/04/21 02:37:22;;;;;;;1.90;1.80;;;;;;;6.78;100.00;99398.05;87483;270;136402;-76
2024/04/21 02:39:23;;;;;;;2.20;2.00;;;;;;;6.75;100.00;99384.58;87602;270;22651;-71
2024/04/21 02:41:23;;;;;;;1.70;1.60;;;;;;;6.75;100.00;99382.86;87514;270;137517;-74
2024/04/21 02:43:24;;;;;;;2.50;1.90;;;;;;;6.74;100.00;99386.02;87597;266;22564;-80
2024/04/21 02:45:25;;;;;;;1.90;1.80;;;;;;;6.70;100.00;99377.99;87680;274;136489;-78
2024/04/21 02:47:26;;;;;;;2.10;2.00;;;;;;;6.69;100.00;99380.77;87699;275;22556;-72
2024/04/21 02:49:27;;;;;;;2.20;1.60;;;;;;;6.68;100.00;99376.99;87773;266;136491;-74
2024/04/21 02:51:27;;;;;;;2.30;2.20;;;;;;;6.67;100.00;99369.52;88580;266;22518;-77
2024/04/21 02:53:28;;;;;;;2.80;2.60;;;;;;;6.68;100.00;99362.04;90256;266;136285;-75
2024/04/21 02:55:28;;;;;;;1.90;1.70;;;;;;;6.69;100.00;99355.73;90329;268;22465;-71
2024/04/21 02:57:31;;;;;;;2.30;2.00;;;;;;;6.70;100.00;99357.13;90152;267;136265;-74
2024/04/21 02:59:32;;;;;;;3.00;1.90;;;;;;;6.72;100.00;99348.55;90022;266;22591;-79
2024/04/21 03:01:33;;;;;;;3.50;1.70;;;;;;;6.72;100.00;99358.81;88652;276;138355;-80
2024/04/21 03:03:33;;;;;;;2.00;1.90;;;;;;;6.71;100.00;99348.91;88793;268;25126;-76
2024/04/21 03:05:34;;;;;;;3.00;1.80;;;;;;;6.72;100.00;99338.08;88120;271;137915;-76
2024/04/21 03:07:35;;;;;;;1.50;1.50;;;;;;;6.71;100.00;99322.02;88529;266;23270;-81
2024/04/21 03:09:39;;;;;;;3.00;2.30;;;;;;;6.71;100.00;99315.58;87696;271;137559;-76
2024/04/21 03:11:40;;;;;;;3.70;2.80;;;;;;;6.71;100.00;99322.55;87584;278;23303;-74
2024/04/21 03:13:41;;;;;;;3.20;3.00;;;;;;;6.72;100.00;99325.86;87316;273;136063;-77
2024/04/21 03:15:42;;;;;;;2.50;2.30;;;;;;;6.72;100.00;99322.84;87609;270;23854;-70
2024/04/21 03:17:42;;;;;;;2.00;1.90;;;;;;;6.71;100.00;99316.80;87487;270;137897;-76
2024/04/21 03:19:47;;;;;;;4.10;2.80;;;;;;;6.69;100.00;99301.30;87609;269;22568;-75
2024/04/21 03:21:48;;;;;;;1.90;1.80;;;;;;;6.68;100.00;99288.95;87572;270;137484;-81
2024/04/21 03:23:51;;;;;;;1.40;1.30;;;;;;;6.66;100.00;99279.44;87493;268;25127;-78
2024/04/21 03:25:51;;;;;;;2.10;1.90;;;;;;;6.66;100.00;99272.67;87395;273;136158;-79
2024/04/21 03:27:52;;;;;;;2.00;1.30;;;;;;;6.68;100.00;99260.11;87602;269;24053;-78
2024/04/21 03:29:53;;;;;;;1.70;1.40;;;;;;;6.68;100.00;99249.75;87478;274;136018;-79
2024/04/21 03:31:54;;;;;;;0.90;0.90;;;;;;;6.69;100.00;99238.52;87625;268;25220;-80
2024/04/21 03:33:54;;;;;;;1.80;0.80;;;;;;;6.67;100.00;99236.27;87394;268;137459;-81
2024/04/21 03:36:08;;;;;;;1.80;1.70;;;;;;;6.66;100.00;99234.42;87644;270;22767;-77
2024/04/21 03:38:08;;;;;;;1.60;0.90;;;;;;;6.68;100.00;99234.73;87564;271;22576;-73
2024/04/21 03:40:10;;;;;;;1.20;1.10;;;;;;;6.68;100.00;99224.10;87471;270;136941;-75
2024/04/21 03:42:10;;;;;;;0.90;0.90;;;;;;;6.69;100.00;99220.67;87576;267;25198;-72
2024/04/21 03:44:11;;;;;;;1.00;1.00;;;;;;;6.68;100.00;99227.60;87464;268;136633;-75
2024/04/21 03:46:12;;;;;;;0.90;0.90;;;;;;;6.69;100.00;99219.59;87575;270;22585;-77
2024/04/21 03:48:13;;;;;;;1.00;0.90;;;;;;;6.69;100.00;99204.05;87514;268;135988;-75
2024/04/21 03:50:14;;;;;;;1.10;0.90;;;;;;;6.69;100.00;99209.52;87494;271;22563;-75
2024/04/21 03:52:15;;;;;;;1.50;1.40;;;;;;;6.69;100.00;99208.30;87471;270;137661;-75
2024/04/21 03:54:16;;;;;;;2.10;1.80;;;;;;;6.70;100.00;99203.70;87620;271;24062;-75
2024/04/21 03:56:16;;;;;;;1.50;1.30;;;;;;;6.72;100.00;99185.75;87447;269;136650;-80
2024/04/21 03:58:17;;;;;;;2.30;1.40;;;;;;;6.74;100.00;99179.91;87601;279;25159;-77
2024/04/21 04:00:18;;;;;;;1.10;0.70;;;;;;;6.75;100.00;99190.38;87461;271;136444;-76
2024/04/21 04:02:19;;;;;;;1.50;1.40;;;;;;;6.77;100.00;99194.68;87532;271;23214;-74
2024/04/21 04:04:19;;;;;;;1.10;0.60;;;;;;;6.80;100.00;99196.52;87430;270;137385;-74
2024/04/21 04:06:21;;;;;;;1.30;1.20;;;;;;;6.82;100.00;99201.72;87557;270;22551;-72
2024/04/21 04:08:22;;;;;;;1.20;1.20;;;;;;;6.83;100.00;99206.83;87570;278;136687;-72
2024/04/21 04:10:23;;;;;;;1.00;0.90;;;;;;;6.86;100.00;99204.97;87644;271;23378;-73
2024/04/21 04:12:23;;;;;;;0.90;0.90;;;;;;;6.86;100.00;99185.98;87442;277;136073;-74
2024/04/21 04:14:24;;;;;;;0.70;0.70;;;;;;;6.89;100.00;99172.95;87591;267;24477;-76
2024/04/21 04:16:25;;;;;;;1.60;1.00;;;;;;;6.89;100.00;99160.20;87409;270;137560;-72
2024/04/21 04:18:25;;;;;;;0.60;0.60;;;;;;;6.90;100.00;99148.65;87530;269;22589;-74
2024/04/21 04:20:26;;;;;;;0.70;0.70;;;;;;;6.91;100.00;99157.00;87414;270;136461;-72
2024/04/21 04:22:27;;;;;;;1.50;0.80;;;;;;;6.91;100.00;99158.95;87498;270;22593;-72
2024/04/21 04:24:27;;;;;;;0.80;0.80;;;;;;;6.91;100.00;99161.23;87422;277;137537;-75
2024/04/21 04:26:28;;;;;;;0.90;0.80;;;;;;;6.92;100.00;99152.80;87469;271;22545;-72
2024/04/21 04:28:29;;;;;;;0.50;0.50;;;;;;;6.94;100.00;99148.46;87360;280;136711;-76
2024/04/21 04:30:30;;;;;;;1.10;0.50;;;;;;;6.95;100.00;99131.71;87459;271;22560;-75
2024/04/21 04:32:30;;;;;;;0.60;0.60;;;;;;;6.96;100.00;99128.66;87226;270;136604;-80
2024/04/21 04:34:31;;;;;;;0.80;0.60;;;;;;;6.95;100.00;99127.36;87165;280;24027;-78
2024/04/21 04:36:32;;;;;;;1.00;0.90;;;;;;;6.95;100.00;99123.83;87574;272;136918;-72
2024/04/21 04:38:33;;;;;;;0.80;0.80;;;;;;;6.96;100.00;99118.32;87672;269;24529;-82
2024/04/21 04:40:35;;;;;;;1.30;1.20;;;;;;;6.98;100.00;99109.00;87550;271;138237;-83
2024/04/21 04:44:53;;;;;;;1.60;0.60;;;;;;;7.13;100.00;99113.77;85056;301;603021;-80
2024/04/21 04:46:54;;;;;;;1.00;0.60;;;;;;;7.28;100.00;99110.36;86537;288;23671;-75
2024/04/21 04:48:55;;;;;;;1.50;0.70;;;;;;;7.30;100.00;99111.73;86505;288;136708;-82
2024/04/21 04:50:55;;;;;;;0.70;0.70;;;;;;;7.31;100.00;99112.87;86619;288;22629;-81
2024/04/21 04:52:56;;;;;;;1.10;1.10;;;;;;;7.54;100.00;99107.29;86273;293;135745;-77
2024/04/21 04:54:57;;;;;;;1.40;1.30;;;;;;;7.67;100.00;99091.47;86994;283;22568;-80
2024/04/21 04:56:58;;;;;;;0.60;0.60;;;;;;;7.71;100.00;99077.89;87237;277;137052;-76
2024/04/21 04:58:58;;;;;;;0.90;0.80;;;;;;;7.73;100.00;99085.92;86607;278;898369;-82
2024/04/21 05:00:59;;;;;;;0.90;0.90;;;;;;;7.75;100.00;99082.14;87168;284;137724;-75
2024/04/21 05:03:00;;;;;;;0.80;0.70;;;;;;;7.73;100.00;99077.69;86767;272;24064;-73
2024/04/21 05:05:01;;;;;;;0.60;0.60;;;;;;;7.73;100.00;99082.34;86918;276;137965;-81
2024/04/21 05:07:01;;;;;;;1.10;0.60;;;;;;;7.75;100.00;99069.58;87206;277;25193;-79
2024/04/21 05:09:02;;;;;;;1.00;0.90;;;;;;;7.77;100.00;99022.32;87337;280;136891;-80
2024/04/21 05:11:03;;;;;;;2.50;0.80;;;;;;;7.78;100.00;99034.40;87459;283;23963;-75
2024/04/21 05:13:04;;;;;;;1.10;0.90;;;;;;;7.80;100.00;99056.15;86971;270;136266;-82
2024/04/21 05:15:05;;;;;;;1.50;1.20;;;;;;;7.79;100.00;99054.47;87612;274;22528;-73
2024/04/21 05:17:06;;;;;;;0.70;0.60;;;;;;;7.79;100.00;99056.60;87411;269;137307;-74
2024/04/21 05:19:06;;;;;;;1.00;1.00;;;;;;;7.78;100.00;99044.15;87588;273;25239;-83
2024/04/21 05:21:07;;;;;;;1.10;0.70;;;;;;;7.80;100.00;99031.52;86991;281;136355;-76
2024/04/21 05:23:08;;;;;;;1.20;0.70;;;;;;;7.83;100.00;99016.85;87735;282;22561;-82
2024/04/21 05:25:08;;;;;;;0.60;0.60;;;;;;;7.85;100.00;99014.77;87659;278;136220;-75
2024/04/21 05:27:09;;;;;;;0.80;0.70;;;;;;;7.85;100.00;99010.54;87565;275;23520;-82
2024/04/21 05:29:09;;;;;;;1.70;0.60;;;;;;;7.88;100.00;99011.27;86901;283;136524;-74
2024/04/21 05:31:10;;;;;;;0.60;0.60;;;;;;;7.84;100.00;99009.88;87440;271;23908;-77
2024/04/21 05:33:11;;;;;;;2.00;1.00;;;;;;;7.82;100.00;99013.92;87313;265;136348;-79
2024/04/21 05:35:12;;;;;;;0.50;0.50;;;;;;;7.83;100.00;99003.92;87200;274;22555;-83
2024/04/21 05:37:12;;;;;;;0.60;0.30;;;;;;;7.79;100.00;98985.39;87694;278;138071;-82
2024/04/21 05:39:13;;;;;;;0.30;0.30;;;;;;;7.78;100.00;98984.28;88022;281;23220;-77
2024/04/21 05:41:14;;;;;;;0.40;0.40;;;;;;;7.76;100.00;98996.16;87470;270;136066;-72
2024/04/21 05:43:15;;;;;;;0.90;0.90;;;;;;;7.76;100.00;98996.52;87650;271;23969;-75
2024/04/21 05:45:16;;;;;;;0.70;0.70;;;;;;;7.78;100.00;98981.59;87883;272;136307;-75
2024/04/21 05:47:17;;;;;;;1.30;1.00;;;;;;;7.81;100.00;98983.17;87679;271;23277;-82
2024/04/21 05:49:19;;;;;;;1.20;0.60;;;;;;;7.83;100.00;98985.36;87661;270;136741;-78
2024/04/21 05:51:20;;;;;;;0.90;0.80;;;;;;;7.83;100.00;98982.73;87473;282;22561;-76
2024/04/21 05:53:21;;;;;;;0.90;0.80;;;;;;;7.85;100.00;98988.86;87493;276;136362;-80
2024/04/21 05:55:22;;;;;;;0.80;0.80;;;;;;;7.86;100.00;98988.08;87380;279;22529;-74
2024/04/21 05:57:23;;;;;;;0.90;0.90;;;;;;;7.88;100.00;98988.90;87468;283;136247;-77
2024/04/21 05:59:24;;;;;;;0.90;0.90;;;;;;;7.90;100.00;98982.22;87841;271;22645;-78
2024/04/21 06:01:25;;;;;;;1.30;1.30;;;;;;;7.92;100.00;98980.44;87578;276;136524;-78
2024/04/21 06:03:26;;;;;;;1.10;0.90;;;;;;;7.94;100.00;98975.06;87792;273;24001;-81
2024/04/21 06:05:27;;;;;;;1.60;1.20;;;;;;;7.94;100.00;98968.61;87638;274;137413;-73
2024/04/21 06:07:27;;;;;;;1.70;1.50;;;;;;;7.93;100.00;98969.19;86542;271;22522;-69
2024/04/21 06:09:28;;;;;;;1.80;1.30;;;;;;;7.91;100.00;98962.74;86677;278;137358;-69
2024/04/21 06:11:29;;;;;;;1.10;1.00;;;;;;;7.91;100.00;98965.19;86904;274;22567;-67
2024/04/21 06:13:29;;;;;;;2.00;1.90;;;;;;;7.90;100.00;98965.04;86955;274;136080;-72
2024/04/21 06:15:31;;;;;;;2.10;1.60;;;;;;;7.91;100.00;98963.64;86752;285;22537;-71
2024/04/21 06:17:31;;;;;;;5.40;1.80;;;;;;;7.93;100.00;98966.36;87060;270;136054;-73
2024/04/21 06:19:32;;;;;;;2.00;1.90;;;;;;;7.95;100.00;98972.38;87144;282;24004;-75
2024/04/21 06:21:33;;;;;;;1.90;1.80;;;;;;;7.97;100.00;98970.58;86872;281;136355;-74
2024/04/21 06:23:34;;;;;;;1.60;1.60;;;;;;;8.00;100.00;98969.10;86856;269;22588;-66
2024/04/21 06:25:35;;;;;;;1.80;1.80;;;;;;;8.02;100.00;98973.47;86658;270;138043;-70
2024/04/21 06:27:35;;;;;;;1.80;1.80;;;;;;;8.03;100.00;98970.48;86609;272;22566;-69
2024/04/21 06:29:36;;;;;;;2.00;1.90;;;;;;;8.04;100.00;98964.79;86706;277;136574;-70
2024/04/21 06:31:37;;;;;;;2.40;2.30;;;;;;;8.03;100.00;98956.52;86917;273;22579;-70
2024/04/21 06:33:37;;;;;;;2.50;2.40;;;;;;;8.04;100.00;98956.48;86820;270;136632;-69
2024/04/21 06:35:39;;;;;;;2.10;1.90;;;;;;;8.04;100.00;98955.91;86907;278;24126;-72
2024/04/21 06:37:40;;;;;;;2.40;2.30;;;;;;;8.04;100.00;98948.48;86814;266;137645;-71
2024/04/21 06:39:41;;;;;;;2.30;2.20;;;;;;;8.01;100.00;98937.45;86822;281;22796;-72
2024/04/21 06:41:44;;;;;;;3.70;2.80;;;;;;;8.03;100.00;98940.70;86590;281;136704;-69
2024/04/21 06:43:44;;;;;;;2.40;2.30;;;;;;;8.05;100.00;98937.90;86787;272;22592;-68
2024/04/21 06:45:48;;;;;;;4.20;3.90;;;;;;;8.05;100.00;98933.02;86781;273;136841;-67
2024/04/21 06:47:49;;;;;;;3.70;3.50;;;;;;;8.04;100.00;98924.68;86967;276;22588;-74
2024/04/21 06:49:50;;;;;;;4.30;3.80;;;;;;;8.05;100.00;98923.27;86870;275;136652;-71
2024/04/21 06:51:50;;;;;;;2.80;2.70;;;;;;;8.01;100.00;98918.98;87077;273;22588;-71
2024/04/21 06:53:51;;;;;;;2.60;2.50;;;;;;;8.04;100.00;98909.33;86950;282;136231;-69
2024/04/21 06:55:52;;;;;;;3.10;3.00;;;;;;;8.08;100.00;98896.66;86911;282;22612;-69
2024/04/21 06:57:52;;;;;;;3.00;2.90;;;;;;;8.09;100.00;98892.79;86758;271;135753;-71
2024/04/21 06:59:53;;;;;;;4.40;4.00;;;;;;;8.09;100.00;98879.36;86801;271;25222;-69
2024/04/21 07:01:54;;;;;;;3.10;3.00;;;;;;;8.07;100.00;98878.34;86818;275;136537;-69
2024/04/21 07:03:55;;;;;;;3.60;3.40;;;;;;;8.08;100.00;98872.38;87676;271;22567;-72
2024/04/21 07:05:56;;;;;;;4.20;3.90;;;;;;;8.10;100.00;98869.67;87363;274;135860;-75
2024/04/21 07:07:57;;;;;;;5.70;5.30;;;;;;;8.11;100.00;98870.16;87136;278;22574;-70
2024/04/21 07:09:58;;;;;;;4.50;4.20;;;;;;;8.14;100.00;98870.80;87235;282;137247;-70
2024/04/21 07:11:58;;;;;;;4.80;4.50;;;;;;;8.16;100.00;98867.65;87156;274;22523;-72
2024/04/21 07:13:59;;;;;;;5.40;5.00;;;;;;;8.19;100.00;98867.20;87152;282;135957;-70
2024/04/21 07:16:00;;;;;;;4.40;4.00;;;;;;;8.20;100.00;98873.25;87036;269;23764;-73
2024/04/21 07:18:00;;;;;;;3.40;3.30;;;;;;;8.21;100.00;98876.38;86894;273;137205;-71
2024/04/21 07:20:01;;;;;;;4.90;4.50;;;;;;;8.22;100.00;98877.24;86949;274;25316;-70
2024/04/21 07:22:02;;;;;;;5.30;4.70;;;;;;;8.22;100.00;98878.84;86858;274;135828;-69
2024/04/21 07:24:03;;;;;;;4.40;4.00;;;;;;;8.22;100.00;98881.81;86768;282;136310;-74
2024/04/21 07:26:04;;;;;;;5.90;5.50;;;;;;;8.24;100.00;98883.04;87123;280;25082;-70
2024/04/21 07:28:05;;;;;;;6.10;5.60;;;;;;;8.22;100.00;98880.55;86856;281;136026;-72
2024/04/21 07:30:08;;;;;;;6.00;4.70;;;;;;;8.23;100.00;98876.70;87025;281;22528;-75
2024/04/21 07:32:08;;;;;;;5.10;4.80;;;;;;;8.23;100.00;98860.73;87037;269;137233;-69
2024/04/21 07:34:09;;;;;;;5.50;5.10;;;;;;;8.24;100.00;98852.70;87038;269;24248;-67
2024/04/21 07:36:10;;;;;;;6.50;5.90;;;;;;;8.24;100.00;98855.84;86935;281;137768;-71
2024/04/21 07:38:11;;;;;;;6.10;5.50;;;;;;;8.27;100.00;98859.05;86723;267;25053;-71
2024/04/21 07:40:14;;;;;;;5.70;5.30;;;;;;;8.26;100.00;98849.65;86716;270;136587;-72
2024/04/21 07:42:14;;;;;;;5.80;5.40;;;;;;;8.27;100.00;98845.37;87301;267;24001;-75
2024/04/21 07:44:15;;;;;;;6.80;6.40;;;;;;;8.31;100.00;98844.98;86881;281;136325;-72
2024/04/21 07:46:16;;;;;;;7.50;7.00;;;;;;;8.32;100.00;98850.38;87162;281;24091;-70
2024/04/21 07:48:17;;;;;;;6.40;5.90;;;;;;;8.30;100.00;98852.88;87099;273;137010;-69
2024/04/21 07:50:18;;;;;;;7.40;6.80;;;;;;;8.31;100.00;98847.39;87014;279;22534;-70
2024/04/21 07:52:18;;;;;;;6.90;6.40;;;;;;;8.32;100.00;98841.64;86915;275;136699;-75
2024/04/21 07:54:19;;;;;;;8.50;7.90;;;;;;;8.33;100.00;98839.10;87278;265;22555;-70
2024/04/21 07:56:20;;;;;;;7.00;6.50;;;;;;;8.33;100.00;98844.33;87034;277;136920;-70
2024/04/21 07:58:21;;;;;;;8.30;7.50;;;;;;;8.35;100.00;98844.89;86841;271;22761;-70
2024/04/21 08:00:22;;;;;;;7.20;6.70;;;;;;;8.36;100.00;98843.70;86801;281;137767;-75
2024/04/21 08:02:23;;;;;;;8.40;7.80;;;;;;;8.38;100.00;98846.06;87005;281;22542;-73
2024/04/21 08:04:23;;;;;;;7.80;7.20;;;;;;;8.40;100.00;98847.77;87012;280;136335;-71
2024/04/21 08:06:24;;;;;;;8.10;7.50;;;;;;;8.42;100.00;98851.88;86919;270;22552;-73
2024/04/21 08:08:25;;;;;;;8.20;7.60;;;;;;;8.42;100.00;98855.55;86932;268;136699;-73
2024/04/21 08:10:26;;;;;;;7.90;7.30;;;;;;;8.42;100.00;98849.91;86852;274;23015;-72
2024/04/21 08:12:26;;;;;;;8.20;7.50;;;;;;;8.44;100.00;98850.19;86798;281;137551;-74
2024/04/21 08:14:28;;;;;;;7.40;6.90;;;;;;;8.44;100.00;98847.83;86840;274;22556;-70
2024/04/21 08:16:29;;;;;;;7.40;6.90;;;;;;;8.45;100.00;98842.27;86800;274;136929;-77
2024/04/21 08:18:30;;;;;;;8.80;8.10;;;;;;;8.44;100.00;98832.13;86927;275;23890;-71
2024/04/21 08:20:31;;;;;;;7.00;6.50;;;;;;;8.44;100.00;98828.34;86801;275;136732;-71
2024/04/21 08:22:32;;;;;;;7.20;6.70;;;;;;;8.45;100.00;98815.88;86887;271;22650;-74
2024/04/21 08:24:33;;;;;;;7.50;6.90;;;;;;;8.47;100.00;98815.74;86802;282;136488;-70
2024/04/21 08:26:33;;;;;;;7.90;7.20;;;;;;;8.50;100.00;98811.56;86912;280;22578;-77
2024/04/21 08:28:34;;;;;;;9.10;8.30;;;;;;;8.52;100.00;98810.57;86814;282;136991;-70
2024/04/21 08:30:35;;;;;;;10.00;9.00;;;;;;;8.53;100.00;98816.09;86917;283;22615;-72
2024/04/21 08:32:35;;;;;;;8.70;7.80;;;;;;;8.55;100.00;98814.23;86796;282;137771;-72
2024/04/21 08:34:36;;;;;;;8.60;8.00;;;;;;;8.57;100.00;98819.79;86929;274;23849;-74
2024/04/21 08:36:37;;;;;;;10.30;9.50;;;;;;;8.60;100.00;98827.45;86994;274;137304;-73
2024/04/21 08:38:37;;;;;;;10.30;9.30;;;;;;;8.59;100.00;98824.34;86883;271;23013;-73
2024/04/21 08:40:39;;;;;;;8.30;7.70;;;;;;;8.60;100.00;98824.10;86809;271;137207;-75
2024/04/21 08:42:42;;;;;;;9.40;8.60;;;;;;;8.58;100.00;98823.05;87159;278;24042;-74
2024/04/21 08:44:44;;;;;;;10.00;9.10;;;;;;;8.59;100.00;98821.85;87092;277;137606;-71
2024/04/21 08:46:46;;;;;;;9.80;8.80;;;;;;;8.61;100.00;98826.77;87691;270;22633;-72
2024/04/21 08:48:49;;;;;;;10.10;9.30;;;;;;;8.63;100.00;98831.56;88646;279;136765;-71
2024/04/21 08:50:50;;;;;;;7.40;6.80;;;;;;;8.65;100.00;98833.95;89098;269;22619;-69
2024/04/21 08:52:52;;;;;;;8.90;8.30;;;;;;;8.65;100.00;98838.05;88912;277;136559;-68
2024/04/21 08:54:53;;;;;;;9.30;8.50;;;;;;;8.69;100.00;98837.33;89285;278;22555;-69
2024/04/21 08:56:56;;;;;;;8.60;7.80;;;;;;;8.72;100.00;98844.27;87306;282;136641;-71
2024/04/21 08:58:58;;;;;;;10.10;9.40;;;;;;;8.75;100.00;98836.84;87120;275;25194;-72
2024/04/21 09:00:59;;;;;;;9.90;9.00;;;;;;;8.76;100.00;98835.73;87262;270;138090;-71
2024/04/21 09:03:00;;;;;;;8.80;7.90;;;;;;;8.78;100.00;98840.88;87231;275;24100;-71
2024/04/21 09:05:00;;;;;;;9.80;9.00;;;;;;;8.80;100.00;98847.20;86934;274;136892;-74
2024/04/21 09:07:02;;;;;;;10.50;9.40;;;;;;;8.81;100.00;98837.09;86922;278;22562;-79
2024/04/21 09:09:03;;;;;;;9.10;8.30;;;;;;;8.83;100.00;98831.86;86730;275;136850;-73
2024/04/21 09:11:03;;;;;;;10.00;9.20;;;;;;;8.86;100.00;98833.23;86830;271;24164;-73
2024/04/21 09:13:06;;;;;;;8.80;8.20;;;;;;;8.88;100.00;98837.59;86849;270;138258;-75
2024/04/21 09:15:09;;;;;;;9.50;8.80;;;;;;;8.88;100.00;98837.17;87038;269;23035;-75
2024/04/21 09:17:11;;;;;;;8.70;8.00;;;;;;;8.87;100.00;98834.98;86703;275;137028;-74
2024/04/21 09:19:12;;;;;;;9.70;8.90;;;;;;;8.88;100.00;98832.23;86919;277;25101;-71
2024/04/21 09:21:12;;;;;;;10.40;9.60;;;;;;;8.89;100.00;98831.65;86793;282;137046;-73
2024/04/21 09:23:13;;;;;;;10.10;9.10;;;;;;;8.93;100.00;98825.30;86833;266;25251;-75
2024/04/21 09:25:14;;;;;;;10.60;9.70;;;;;;;8.96;100.00;98824.73;86729;274;137953;-75
2024/04/21 09:27:17;;;;;;;10.80;10.00;;;;;;;8.99;100.00;98815.44;87011;278;24364;-72
2024/04/21 09:29:18;;;;;;;11.60;10.50;;;;;;;9.02;100.00;98824.98;86850;269;138981;-72
2024/04/21 09:31:18;;;;;;;9.30;8.70;;;;;;;9.02;100.00;98815.16;86713;275;22847;-74
2024/04/21 09:33:20;;;;;;;9.50;8.80;;;;;;;9.01;100.00;98813.75;86789;278;136965;-77